sensor_id;sensor_type;location;lat;lon;timestamp;pressure;altitude;pressure_sealevel;temperature;humidity
77869;BME280;67231;59.144;37.934;2024-03-17T00:01:01;99969.50;;;2.74;72.01
77869;BME280;67231;59.144;37.934;2024-03-17T00:03:28;99968.75;;;2.72;71.93
77869;BME280;67231;59.144;37.934;2024-03-17T00:06:02;99968.88;;;2.70;72.29
77869;BME280;67231;59.144;37.934;2024-03-17T00:08:55;99969.06;;;2.67;72.42
77869;BME280;67231;59.144;37.934;2024-03-17T00:11:22;99960.38;;;2.67;72.38
77869;BME280;67231;59.144;37.934;2024-03-17T00:13:57;99965.53;;;2.68;71.99
77869;BME280;67231;59.144;37.934;2024-03-17T00:16:24;99963.00;;;2.67;72.27
77869;BME280;67231;59.144;37.934;2024-03-17T00:18:50;99956.91;;;2.66;72.00
77869;BME280;67231;59.144;37.934;2024-03-17T00:21:17;99958.78;;;2.64;72.10
77869;BME280;67231;59.144;37.934;2024-03-17T00:23:43;99959.63;;;2.65;72.06
77869;BME280;67231;59.144;37.934;2024-03-17T00:26:10;99960.47;;;2.65;72.41
77869;BME280;67231;59.144;37.934;2024-03-17T00:28:36;99953.34;;;2.67;72.29
77869;BME280;67231;59.144;37.934;2024-03-17T00:31:03;99957.00;;;2.65;72.40
77869;BME280;67231;59.144;37.934;2024-03-17T00:33:30;99953.34;;;2.67;72.32
77869;BME280;67231;59.144;37.934;2024-03-17T00:35:59;99955.03;;;2.68;71.97
77869;BME280;67231;59.144;37.934;2024-03-17T00:38:25;99950.72;;;2.67;72.42
77869;BME280;67231;59.144;37.934;2024-03-17T00:40:52;99958.59;;;2.67;72.37
77869;BME280;67231;59.144;37.934;2024-03-17T00:43:19;99954.28;;;2.66;72.18
77869;BME280;67231;59.144;37.934;2024-03-17T00:45:52;99945.59;;;2.66;72.60
77869;BME280;67231;59.144;37.934;2024-03-17T00:48:19;99947.38;;;2.65;72.30
77869;BME280;67231;59.144;37.934;2024-03-17T00:50:46;99946.53;;;2.65;72.35
77869;BME280;67231;59.144;37.934;2024-03-17T00:53:12;99942.25;;;2.64;72.26
77869;BME280;67231;59.144;37.934;2024-03-17T00:55:39;99948.41;;;2.63;72.40
77869;BME280;67231;59.144;37.934;2024-03-17T00:58:05;99947.50;;;2.64;72.36
77869;BME280;67231;59.144;37.934;2024-03-17T01:00:32;99934.50;;;2.62;72.40
77869;BME280;67231;59.144;37.934;2024-03-17T01:03:02;99938.03;;;2.61;72.55
77869;BME280;67231;59.144;37.934;2024-03-17T01:05:28;99937.22;;;2.61;72.11
77869;BME280;67231;59.144;37.934;2024-03-17T01:07:55;99944.13;;;2.62;72.31
77869;BME280;67231;59.144;37.934;2024-03-17T01:10:21;99939.94;;;2.59;72.62
77869;BME280;67231;59.144;37.934;2024-03-17T01:12:48;99939.00;;;2.60;72.38
77869;BME280;67231;59.144;37.934;2024-03-17T01:15:14;99934.69;;;2.59;72.39
77869;BME280;67231;59.144;37.934;2024-03-17T01:17:41;99939.94;;;2.59;72.23
77869;BME280;67231;59.144;37.934;2024-03-17T01:20:07;99933.75;;;2.60;72.48
77869;BME280;67231;59.144;37.934;2024-03-17T01:22:34;99935.31;;;2.63;72.58
77869;BME280;67231;59.144;37.934;2024-03-17T01:25:01;99928.44;;;2.62;72.73
77869;BME280;67231;59.144;37.934;2024-03-17T01:27:28;99921.69;;;2.58;72.65
77869;BME280;67231;59.144;37.934;2024-03-17T01:29:54;99926.75;;;2.61;72.75
77869;BME280;67231;59.144;37.934;2024-03-17T01:32:21;99916.16;;;2.62;72.70
77869;BME280;67231;59.144;37.934;2024-03-17T01:34:47;99918.69;;;2.64;72.64
77869;BME280;67231;59.144;37.934;2024-03-17T01:37:14;99912.72;;;2.62;72.80
77869;BME280;67231;59.144;37.934;2024-03-17T01:39:40;99914.16;;;2.66;72.44
77869;BME280;67231;59.144;37.934;2024-03-17T01:42:07;99911.44;;;2.67;72.52
77869;BME280;67231;59.144;37.934;2024-03-17T01:44:33;99913.13;;;2.68;72.63
77869;BME280;67231;59.144;37.934;2024-03-17T01:47:00;99922.63;;;2.69;72.59
77869;BME280;67231;59.144;37.934;2024-03-17T01:49:26;99926.22;;;2.68;72.61
77869;BME280;67231;59.144;37.934;2024-03-17T01:51:54;99922.84;;;2.66;72.58
77869;BME280;67231;59.144;37.934;2024-03-17T01:54:20;99920.22;;;2.66;72.70
77869;BME280;67231;59.144;37.934;2024-03-17T01:56:47;99915.09;;;2.65;72.68
77869;BME280;67231;59.144;37.934;2024-03-17T01:59:14;99914.38;;;2.63;72.28
77869;BME280;67231;59.144;37.934;2024-03-17T02:01:41;99911.84;;;2.61;72.48
77869;BME280;67231;59.144;37.934;2024-03-17T02:04:07;99911.94;;;2.60;72.54
77869;BME280;67231;59.144;37.934;2024-03-17T02:06:34;99914.66;;;2.58;72.69
77869;BME280;67231;59.144;37.934;2024-03-17T02:09:00;99907.88;;;2.55;72.29
77869;BME280;67231;59.144;37.934;2024-03-17T02:11:31;99913.31;;;2.52;72.46
77869;BME280;67231;59.144;37.934;2024-03-17T02:14:02;99915.19;;;2.50;72.61
77869;BME280;67231;59.144;37.934;2024-03-17T02:16:29;99905.78;;;2.48;72.74
77869;BME280;67231;59.144;37.934;2024-03-17T02:18:56;99910.38;;;2.44;73.15
77869;BME280;67231;59.144;37.934;2024-03-17T02:21:24;99919.38;;;2.40;73.19
77869;BME280;67231;59.144;37.934;2024-03-17T02:23:54;99910.06;;;2.36;72.80
77869;BME280;67231;59.144;37.934;2024-03-17T02:26:21;99913.81;;;2.32;72.83
77869;BME280;67231;59.144;37.934;2024-03-17T02:28:49;99908.03;;;2.27;72.71
77869;BME280;67231;59.144;37.934;2024-03-17T02:31:16;99904.81;;;2.23;72.98
77869;BME280;67231;59.144;37.934;2024-03-17T02:33:44;99901.53;;;2.19;73.44
77869;BME280;67231;59.144;37.934;2024-03-17T02:36:11;99911.25;;;2.17;73.28
77869;BME280;67231;59.144;37.934;2024-03-17T02:38:39;99908.13;;;2.12;73.45
77869;BME280;67231;59.144;37.934;2024-03-17T02:41:25;99904.88;;;2.09;73.43
77869;BME280;67231;59.144;37.934;2024-03-17T02:43:52;99912.81;;;2.07;73.23
77869;BME280;67231;59.144;37.934;2024-03-17T02:46:19;99902.56;;;2.04;73.54
77869;BME280;67231;59.144;37.934;2024-03-17T02:48:50;99903.69;;;2.00;73.51
77869;BME280;67231;59.144;37.934;2024-03-17T02:51:19;99906.50;;;1.97;73.69
77869;BME280;67231;59.144;37.934;2024-03-17T02:53:47;99904.06;;;1.94;73.69
77869;BME280;67231;59.144;37.934;2024-03-17T02:56:15;99903.53;;;1.89;73.85
77869;BME280;67231;59.144;37.934;2024-03-17T02:58:46;99905.63;;;1.84;73.91
77869;BME280;67231;59.144;37.934;2024-03-17T03:01:13;99906.53;;;1.82;73.95
77869;BME280;67231;59.144;37.934;2024-03-17T03:03:41;99904.13;;;1.79;73.98
77869;BME280;67231;59.144;37.934;2024-03-17T03:06:08;99903.59;;;1.74;74.08
77869;BME280;67231;59.144;37.934;2024-03-17T03:08:40;99901.06;;;1.73;74.24
77869;BME280;67231;59.144;37.934;2024-03-17T03:11:09;99902.22;;;1.69;74.23
77869;BME280;67231;59.144;37.934;2024-03-17T03:13:43;99908.47;;;1.66;74.19
77869;BME280;67231;59.144;37.934;2024-03-17T03:16:11;99902.63;;;1.62;74.05
77869;BME280;67231;59.144;37.934;2024-03-17T03:18:38;99900.09;;;1.61;74.31
77869;BME280;67231;59.144;37.934;2024-03-17T03:21:08;99901.94;;;1.59;74.41
77869;BME280;67231;59.144;37.934;2024-03-17T03:23:34;99903.91;;;1.55;74.81
77869;BME280;67231;59.144;37.934;2024-03-17T03:26:02;99909.25;;;1.54;74.19
77869;BME280;67231;59.144;37.934;2024-03-17T03:28:32;99901.59;;;1.51;74.58
77869;BME280;67231;59.144;37.934;2024-03-17T03:31:02;99907.88;;;1.48;74.50
77869;BME280;67231;59.144;37.934;2024-03-17T03:33:29;99915.81;;;1.47;74.48
77869;BME280;67231;59.144;37.934;2024-03-17T03:35:55;99912.47;;;1.44;74.35
77869;BME280;67231;59.144;37.934;2024-03-17T03:38:22;99909.94;;;1.43;74.73
77869;BME280;67231;59.144;37.934;2024-03-17T03:40:49;99903.97;;;1.41;74.68
77869;BME280;67231;59.144;37.934;2024-03-17T03:43:16;99910.25;;;1.38;74.92
77869;BME280;67231;59.144;37.934;2024-03-17T03:45:42;99905.00;;;1.38;74.90
77869;BME280;67231;59.144;37.934;2024-03-17T03:48:09;99905.00;;;1.38;74.57
77869;BME280;67231;59.144;37.934;2024-03-17T03:50:37;99904.25;;;1.36;75.01
77869;BME280;67231;59.144;37.934;2024-03-17T03:53:04;99895.47;;;1.37;75.13
77869;BME280;67231;59.144;37.934;2024-03-17T03:55:32;99905.00;;;1.38;74.85
77869;BME280;67231;59.144;37.934;2024-03-17T03:57:58;99910.97;;;1.40;74.95
77869;BME280;67231;59.144;37.934;2024-03-17T04:00:25;99912.66;;;1.41;74.84
77869;BME280;67231;59.144;37.934;2024-03-17T04:02:56;99907.97;;;1.47;74.90
77869;BME280;67231;59.144;37.934;2024-03-17T04:05:23;99913.00;;;1.50;74.67
77869;BME280;67231;59.144;37.934;2024-03-17T04:07:49;99904.03;;;1.54;74.95
77869;BME280;67231;59.144;37.934;2024-03-17T04:10:16;99894.97;;;1.59;74.39
77869;BME280;67231;59.144;37.934;2024-03-17T04:12:45;99909.22;;;1.68;74.58
77869;BME280;67231;59.144;37.934;2024-03-17T04:15:12;99906.31;;;1.73;74.38
77869;BME280;67231;59.144;37.934;2024-03-17T04:17:38;99904.03;;;1.81;74.08
77869;BME280;67231;59.144;37.934;2024-03-17T04:20:06;99906.34;;;1.86;74.03
77869;BME280;67231;59.144;37.934;2024-03-17T04:22:37;99901.25;;;1.97;74.14
77869;BME280;67231;59.144;37.934;2024-03-17T04:25:04;99914.88;;;2.02;73.75
77869;BME280;67231;59.144;37.934;2024-03-17T04:27:30;99909.25;;;2.08;73.59
77869;BME280;67231;59.144;37.934;2024-03-17T04:29:59;99924.59;;;2.27;73.57
77869;BME280;67231;59.144;37.934;2024-03-17T04:32:26;99914.47;;;2.74;72.94
77869;BME280;67231;59.144;37.934;2024-03-17T04:34:53;99913.69;;;3.23;71.64
77869;BME280;67231;59.144;37.934;2024-03-17T04:37:20;99913.06;;;3.70;69.94
77869;BME280;67231;59.144;37.934;2024-03-17T04:39:47;99914.97;;;3.92;69.81
77869;BME280;67231;59.144;37.934;2024-03-17T04:42:15;99909.69;;;4.16;69.05
77869;BME280;67231;59.144;37.934;2024-03-17T04:44:43;99913.56;;;4.34;68.66
77869;BME280;67231;59.144;37.934;2024-03-17T04:47:10;99903.44;;;4.52;68.00
77869;BME280;67231;59.144;37.934;2024-03-17T04:49:38;99923.69;;;4.74;67.70
77869;BME280;67231;59.144;37.934;2024-03-17T04:52:05;99916.91;;;4.95;67.28
77869;BME280;67231;59.144;37.934;2024-03-17T04:54:34;99920.97;;;4.87;66.63
77869;BME280;67231;59.144;37.934;2024-03-17T04:57:01;99913.41;;;4.71;66.84
77869;BME280;67231;59.144;37.934;2024-03-17T04:59:28;99917.25;;;4.67;67.20
77869;BME280;67231;59.144;37.934;2024-03-17T05:01:55;99909.72;;;4.74;66.65
77869;BME280;67231;59.144;37.934;2024-03-17T05:04:22;99911.53;;;4.85;65.82
77869;BME280;67231;59.144;37.934;2024-03-17T05:06:48;99919.16;;;4.88;66.82
77869;BME280;67231;59.144;37.934;2024-03-17T05:09:17;99916.28;;;5.02;66.50
77869;BME280;67231;59.144;37.934;2024-03-17T05:11:44;99914.41;;;5.16;65.60
77869;BME280;67231;59.144;37.934;2024-03-17T05:14:11;99925.28;;;5.34;65.26
77869;BME280;67231;59.144;37.934;2024-03-17T05:16:38;99929.34;;;5.26;65.10
77869;BME280;67231;59.144;37.934;2024-03-17T05:19:05;99920.25;;;5.19;65.38
77869;BME280;67231;59.144;37.934;2024-03-17T05:21:32;99929.09;;;5.29;65.13
77869;BME280;67231;59.144;37.934;2024-03-17T05:24:01;99924.69;;;5.30;65.02
77869;BME280;67231;59.144;37.934;2024-03-17T05:26:28;99916.31;;;5.25;64.61
77869;BME280;67231;59.144;37.934;2024-03-17T05:28:56;99916.56;;;5.22;65.10
77869;BME280;67231;59.144;37.934;2024-03-17T05:31:23;99918.56;;;5.18;64.58
77869;BME280;67231;59.144;37.934;2024-03-17T05:33:49;99910.91;;;5.15;64.44
77869;BME280;67231;59.144;37.934;2024-03-17T05:36:18;99916.28;;;5.02;64.23
77869;BME280;67231;59.144;37.934;2024-03-17T05:38:46;99909.72;;;4.85;65.07
77869;BME280;67231;59.144;37.934;2024-03-17T05:41:14;99923.22;;;4.81;65.51
77869;BME280;67231;59.144;37.934;2024-03-17T05:43:40;99916.91;;;4.95;65.42
77869;BME280;67231;59.144;37.934;2024-03-17T05:46:09;99908.66;;;5.10;64.68
77869;BME280;67231;59.144;37.934;2024-03-17T05:48:37;99918.69;;;5.39;63.98
77869;BME280;67231;59.144;37.934;2024-03-17T05:51:08;99915.84;;;5.86;63.78
77869;BME280;67231;59.144;37.934;2024-03-17T05:53:36;99912.19;;;6.42;62.29
77869;BME280;67231;59.144;37.934;2024-03-17T05:56:07;99904.84;;;6.98;60.90
77869;BME280;67231;59.144;37.934;2024-03-17T05:58:38;99913.13;;;7.55;59.90
77869;BME280;67231;59.144;37.934;2024-03-17T06:01:05;99914.00;;;7.94;59.23
77869;BME280;67231;59.144;37.934;2024-03-17T06:03:35;99911.09;;;8.27;58.31
77869;BME280;67231;59.144;37.934;2024-03-17T06:06:03;99914.31;;;8.01;58.48
77869;BME280;67231;59.144;37.934;2024-03-17T06:08:30;99915.13;;;8.01;58.49
77869;BME280;67231;59.144;37.934;2024-03-17T06:10:57;99913.59;;;8.18;58.16
77869;BME280;67231;59.144;37.934;2024-03-17T06:13:29;99922.50;;;8.27;57.36
77869;BME280;67231;59.144;37.934;2024-03-17T06:15:55;99920.56;;;8.19;57.11
77869;BME280;67231;59.144;37.934;2024-03-17T06:18:27;99915.00;;;8.13;56.81
77869;BME280;67231;59.144;37.934;2024-03-17T06:20:54;99914.31;;;8.11;56.60
77869;BME280;67231;59.144;37.934;2024-03-17T06:23:25;99918.31;;;8.34;56.54
77869;BME280;67231;59.144;37.934;2024-03-17T06:25:55;99920.41;;;8.31;56.29
77869;BME280;67231;59.144;37.934;2024-03-17T06:28:22;99924.44;;;8.06;57.06
77869;BME280;67231;59.144;37.934;2024-03-17T06:30:57;99915.09;;;7.72;57.70
77869;BME280;67231;59.144;37.934;2024-03-17T06:33:26;99909.69;;;7.83;57.57
77869;BME280;67231;59.144;37.934;2024-03-17T06:35:55;99906.91;;;7.85;57.66
77869;BME280;67231;59.144;37.934;2024-03-17T06:38:23;99913.28;;;7.82;57.40
77869;BME280;67231;59.144;37.934;2024-03-17T06:40:50;99895.50;;;7.94;56.71
77869;BME280;67231;59.144;37.934;2024-03-17T06:43:20;99901.78;;;8.23;56.84
77869;BME280;67231;59.144;37.934;2024-03-17T06:46:00;99905.53;;;8.00;56.72
77869;BME280;67231;59.144;37.934;2024-03-17T06:48:31;99903.28;;;7.76;57.28
77869;BME280;67231;59.144;37.934;2024-03-17T06:50:59;99901.00;;;7.52;57.41
77869;BME280;67231;59.144;37.934;2024-03-17T06:53:26;99905.16;;;7.35;57.90
77869;BME280;67231;59.144;37.934;2024-03-17T06:55:54;99918.63;;;7.42;57.27
77869;BME280;67231;59.144;37.934;2024-03-17T06:58:30;99912.69;;;7.50;56.83
77869;BME280;67231;59.144;37.934;2024-03-17T07:01:08;99923.91;;;7.42;57.64
77869;BME280;67231;59.144;37.934;2024-03-17T07:03:39;99913.19;;;7.34;57.76
77869;BME280;67231;59.144;37.934;2024-03-17T07:06:55;99911.59;;;7.62;57.25
77869;BME280;67231;59.144;37.934;2024-03-17T07:09:48;99911.09;;;8.27;56.35
77869;BME280;67231;59.144;37.934;2024-03-17T07:15:16;99920.00;;;9.40;54.44
77869;BME280;67231;59.144;37.934;2024-03-17T07:17:42;99923.47;;;9.40;54.34
77869;BME280;67231;59.144;37.934;2024-03-17T07:20:10;99917.22;;;9.41;53.96
77869;BME280;67231;59.144;37.934;2024-03-17T07:22:40;99907.19;;;9.63;54.46
77869;BME280;67231;59.144;37.934;2024-03-17T07:25:06;99910.94;;;10.06;53.62
77869;BME280;67231;59.144;37.934;2024-03-17T07:27:33;99903.34;;;10.47;52.80
77869;BME280;67231;59.144;37.934;2024-03-17T07:30:00;99901.28;;;10.59;52.10
77869;BME280;67231;59.144;37.934;2024-03-17T07:32:31;99902.38;;;10.74;52.59
77869;BME280;67231;59.144;37.934;2024-03-17T07:34:58;99895.59;;;11.06;51.32
77869;BME280;67231;59.144;37.934;2024-03-17T07:37:25;99899.56;;;11.37;51.41
77869;BME280;67231;59.144;37.934;2024-03-17T07:39:51;99899.06;;;11.41;50.74
77869;BME280;67231;59.144;37.934;2024-03-17T07:42:18;99908.94;;;11.57;50.42
77869;BME280;67231;59.144;37.934;2024-03-17T07:44:44;99902.84;;;11.90;49.61
77869;BME280;67231;59.144;37.934;2024-03-17T07:47:11;99904.06;;;12.12;49.24
77869;BME280;67231;59.144;37.934;2024-03-17T07:49:38;99898.25;;;12.25;48.58
77869;BME280;67231;59.144;37.934;2024-03-17T07:52:06;99896.25;;;12.27;48.54
77869;BME280;67231;59.144;37.934;2024-03-17T07:54:52;99909.38;;;12.12;48.37
77869;BME280;67231;59.144;37.934;2024-03-17T07:57:23;99894.41;;;11.94;48.34
77869;BME280;67231;59.144;37.934;2024-03-17T07:59:53;99892.59;;;12.19;48.06
77869;BME280;67231;59.144;37.934;2024-03-17T08:02:20;99900.56;;;12.52;47.93
77869;BME280;67231;59.144;37.934;2024-03-17T08:04:47;99899.38;;;12.80;47.19
77869;BME280;67231;59.144;37.934;2024-03-17T08:07:13;99895.84;;;12.96;46.93
77869;BME280;67231;59.144;37.934;2024-03-17T08:09:40;99901.53;;;13.32;46.37
77869;BME280;67231;59.144;37.934;2024-03-17T08:12:07;99903.97;;;13.81;45.74
77869;BME280;67231;59.144;37.934;2024-03-17T08:14:33;99904.06;;;14.19;45.34
77869;BME280;67231;59.144;37.934;2024-03-17T08:17:00;99894.00;;;14.68;44.13
77869;BME280;67231;59.144;37.934;2024-03-17T08:19:26;99894.38;;;14.95;44.37
77869;BME280;67231;59.144;37.934;2024-03-17T08:21:54;99896.31;;;15.01;43.18
77869;BME280;67231;59.144;37.934;2024-03-17T08:24:21;99901.66;;;15.30;43.04
77869;BME280;67231;59.144;37.934;2024-03-17T08:26:47;99896.31;;;15.16;42.79
77869;BME280;67231;59.144;37.934;2024-03-17T08:29:14;99894.22;;;14.96;42.26
77869;BME280;67231;59.144;37.934;2024-03-17T08:31:40;99897.06;;;14.95;41.96
77869;BME280;67231;59.144;37.934;2024-03-17T08:34:08;99889.06;;;14.56;42.09
77869;BME280;67231;59.144;37.934;2024-03-17T08:36:36;99893.59;;;13.87;42.81
77869;BME280;67231;59.144;37.934;2024-03-17T08:39:02;99890.38;;;12.89;44.01
77869;BME280;67231;59.144;37.934;2024-03-17T08:41:29;99899.75;;;12.11;45.26
77869;BME280;67231;59.144;37.934;2024-03-17T08:43:57;99883.34;;;11.56;46.12
77869;BME280;67231;59.144;37.934;2024-03-17T08:46:24;99896.47;;;11.15;47.03
77869;BME280;67231;59.144;37.934;2024-03-17T08:48:51;99889.19;;;10.91;47.44
77869;BME280;67231;59.144;37.934;2024-03-17T08:51:18;99903.06;;;10.77;47.97
77869;BME280;67231;59.144;37.934;2024-03-17T08:53:46;99899.81;;;10.38;47.72
77869;BME280;67231;59.144;37.934;2024-03-17T08:56:13;99892.84;;;10.19;48.78
77869;BME280;67231;59.144;37.934;2024-03-17T08:58:40;99900.41;;;9.78;49.05
77869;BME280;67231;59.144;37.934;2024-03-17T09:01:07;99900.53;;;9.59;50.12
77869;BME280;67231;59.144;37.934;2024-03-17T09:03:35;99898.19;;;9.56;49.78
77869;BME280;67231;59.144;37.934;2024-03-17T09:06:02;99897.19;;;9.29;51.24
77869;BME280;67231;59.144;37.934;2024-03-17T09:08:28;99888.13;;;9.04;51.20
77869;BME280;67231;59.144;37.934;2024-03-17T09:10:55;99894.75;;;8.80;51.78
77869;BME280;67231;59.144;37.934;2024-03-17T09:13:24;99894.78;;;8.70;51.84
77869;BME280;67231;59.144;37.934;2024-03-17T09:18:23;99893.69;;;8.53;53.19
77869;BME280;67231;59.144;37.934;2024-03-17T09:20:58;99892.44;;;8.57;53.35
77869;BME280;67231;59.144;37.934;2024-03-17T09:23:25;99884.25;;;8.51;52.71
77869;BME280;67231;59.144;37.934;2024-03-17T09:28:27;99891.00;;;8.73;53.18
77869;BME280;67231;59.144;37.934;2024-03-17T09:30:55;99896.41;;;8.91;53.27
77869;BME280;67231;59.144;37.934;2024-03-17T09:33:23;99893.16;;;8.97;52.85
77869;BME280;67231;59.144;37.934;2024-03-17T09:35:54;99883.94;;;9.01;53.35
77869;BME280;67231;59.144;37.934;2024-03-17T09:38:21;99891.50;;;8.96;52.51
77869;BME280;67231;59.144;37.934;2024-03-17T09:40:49;99888.56;;;8.99;53.00
77869;BME280;67231;59.144;37.934;2024-03-17T09:43:24;99889.53;;;8.98;52.71
77869;BME280;67231;59.144;37.934;2024-03-17T09:45:51;99888.94;;;9.04;53.54
77869;BME280;67231;59.144;37.934;2024-03-17T09:48:28;99887.09;;;9.15;53.07
77869;BME280;67231;59.144;37.934;2024-03-17T09:53:34;99893.97;;;9.07;52.90
77869;BME280;67231;59.144;37.934;2024-03-17T09:56:15;99885.78;;;9.01;53.35
77869;BME280;67231;59.144;37.934;2024-03-17T09:58:42;99886.97;;;9.06;53.07
77869;BME280;67231;59.144;37.934;2024-03-17T10:01:09;99888.19;;;9.22;52.35
77869;BME280;67231;59.144;37.934;2024-03-17T10:03:52;99894.34;;;9.40;52.49
77869;BME280;67231;59.144;37.934;2024-03-17T10:06:22;99893.22;;;9.43;52.75
77869;BME280;67231;59.144;37.934;2024-03-17T10:08:57;99892.47;;;9.23;53.05
77869;BME280;67231;59.144;37.934;2024-03-17T10:11:25;99893.13;;;9.07;52.86
77869;BME280;67231;59.144;37.934;2024-03-17T10:14:07;99892.59;;;8.93;53.09
77869;BME280;67231;59.144;37.934;2024-03-17T10:16:38;99881.94;;;8.75;53.83
77869;BME280;67231;59.144;37.934;2024-03-17T10:19:09;99891.59;;;8.67;53.57
77869;BME280;67231;59.144;37.934;2024-03-17T10:21:38;99894.09;;;8.68;54.10
77869;BME280;67231;59.144;37.934;2024-03-17T10:26:46;99899.13;;;8.52;53.52
77869;BME280;67231;59.144;37.934;2024-03-17T10:29:26;99898.56;;;8.29;54.35
77869;BME280;67231;59.144;37.934;2024-03-17T10:32:04;99901.34;;;8.17;54.50
77869;BME280;67231;59.144;37.934;2024-03-17T10:34:31;99901.09;;;8.11;54.75
77869;BME280;67231;59.144;37.934;2024-03-17T10:37:14;99896.06;;;8.08;55.36
77869;BME280;67231;59.144;37.934;2024-03-17T10:39:42;99901.38;;;7.98;55.16
77869;BME280;67231;59.144;37.934;2024-03-17T10:42:10;99897.72;;;8.09;55.30
77869;BME280;67231;59.144;37.934;2024-03-17T10:44:38;99896.06;;;8.17;55.22
77869;BME280;67231;59.144;37.934;2024-03-17T10:47:06;99893.97;;;8.21;55.29
77869;BME280;67231;59.144;37.934;2024-03-17T10:49:37;99899.00;;;8.24;55.19
77869;BME280;67231;59.144;37.934;2024-03-17T10:52:07;99896.06;;;8.27;55.15
77869;BME280;67231;59.144;37.934;2024-03-17T10:54:35;99888.81;;;8.29;55.06
77869;BME280;67231;59.144;37.934;2024-03-17T10:57:12;99896.47;;;8.23;54.85
77869;BME280;67231;59.144;37.934;2024-03-17T10:59:47;99892.03;;;8.23;54.92
77869;BME280;67231;59.144;37.934;2024-03-17T11:02:22;99888.56;;;8.23;54.99
77869;BME280;67231;59.144;37.934;2024-03-17T11:04:54;99887.00;;;8.20;54.93
77869;BME280;67231;59.144;37.934;2024-03-17T11:07:21;99893.00;;;8.22;55.41
77869;BME280;67231;59.144;37.934;2024-03-17T11:09:50;99898.84;;;8.16;55.99
77869;BME280;67231;59.144;37.934;2024-03-17T11:12:43;99884.09;;;8.03;55.84
77869;BME280;67231;59.144;37.934;2024-03-17T11:17:48;99887.44;;;7.96;55.63
77869;BME280;67231;59.144;37.934;2024-03-17T11:20:21;99883.56;;;8.00;56.06
77869;BME280;67231;59.144;37.934;2024-03-17T11:22:50;99880.63;;;8.03;55.67
77869;BME280;67231;59.144;37.934;2024-03-17T11:27:54;99890.53;;;8.11;55.86
77869;BME280;67231;59.144;37.934;2024-03-17T11:30:48;99875.34;;;8.13;55.99
77869;BME280;67231;59.144;37.934;2024-03-17T11:41:40;99890.88;;;7.77;56.57
77869;BME280;67231;59.144;37.934;2024-03-17T11:47:04;99889.38;;;7.64;56.98
77869;BME280;67231;59.144;37.934;2024-03-17T11:49:39;99890.72;;;7.59;56.64
77869;BME280;67231;59.144;37.934;2024-03-17T11:52:10;99878.19;;;7.51;56.88
77869;BME280;67231;59.144;37.934;2024-03-17T11:54:41;99878.94;;;7.53;56.63
77869;BME280;67231;59.144;37.934;2024-03-17T11:59:37;99887.53;;;7.55;57.05
77869;BME280;67231;59.144;37.934;2024-03-17T12:04:52;99878.63;;;7.46;56.62
77869;BME280;67231;59.144;37.934;2024-03-17T12:07:20;99880.16;;;7.49;57.29
77869;BME280;67231;59.144;37.934;2024-03-17T12:09:47;99879.19;;;7.50;57.38
77869;BME280;67231;59.144;37.934;2024-03-17T12:12:18;99884.47;;;7.50;57.17
77869;BME280;67231;59.144;37.934;2024-03-17T12:14:50;99887.13;;;7.50;57.02
77869;BME280;67231;59.144;37.934;2024-03-17T12:17:21;99871.28;;;7.50;57.06
77869;BME280;67231;59.144;37.934;2024-03-17T12:19:48;99877.25;;;7.52;57.03
77869;BME280;67231;59.144;37.934;2024-03-17T12:22:19;99878.78;;;7.55;57.10
77869;BME280;67231;59.144;37.934;2024-03-17T12:24:49;99872.38;;;7.57;56.71
77869;BME280;67231;59.144;37.934;2024-03-17T12:27:22;99888.81;;;7.61;56.63
77869;BME280;67231;59.144;37.934;2024-03-17T12:29:53;99878.53;;;7.58;57.43
77869;BME280;67231;59.144;37.934;2024-03-17T12:32:22;99878.66;;;7.56;57.00
77869;BME280;67231;59.144;37.934;2024-03-17T12:34:54;99881.72;;;7.61;56.64
77869;BME280;67231;59.144;37.934;2024-03-17T12:37:25;99885.19;;;7.62;56.93
77869;BME280;67231;59.144;37.934;2024-03-17T12:40:02;99881.44;;;7.64;56.71
77869;BME280;67231;59.144;37.934;2024-03-17T12:42:30;99889.38;;;7.64;56.69
77869;BME280;67231;59.144;37.934;2024-03-17T12:45:00;99880.16;;;7.59;57.13
77869;BME280;67231;59.144;37.934;2024-03-17T12:47:32;99884.34;;;7.61;56.70
77869;BME280;67231;59.144;37.934;2024-03-17T12:50:02;99881.03;;;7.59;57.08
77869;BME280;67231;59.144;37.934;2024-03-17T12:52:33;99881.44;;;7.64;57.00
77869;BME280;67231;59.144;37.934;2024-03-17T12:55:05;99882.41;;;7.63;56.75
77869;BME280;67231;59.144;37.934;2024-03-17T13:01:16;99871.41;;;7.58;56.60
77869;BME280;67231;59.144;37.934;2024-03-17T13:03:43;99876.97;;;7.55;56.85
77869;BME280;67231;59.144;37.934;2024-03-17T13:06:22;99870.88;;;7.55;57.26
77869;BME280;67231;59.144;37.934;2024-03-17T13:08:50;99881.97;;;7.58;56.82
77869;BME280;67231;59.144;37.934;2024-03-17T13:11:17;99880.31;;;7.57;57.18
77869;BME280;67231;59.144;37.934;2024-03-17T13:13:43;99874.34;;;7.55;57.48
77869;BME280;67231;59.144;37.934;2024-03-17T13:16:19;99871.28;;;7.50;57.00
77869;BME280;67231;59.144;37.934;2024-03-17T13:18:47;99872.38;;;7.47;57.23
77869;BME280;67231;59.144;37.934;2024-03-17T13:21:15;99873.75;;;7.42;57.32
77869;BME280;67231;59.144;37.934;2024-03-17T13:23:46;99873.59;;;7.34;57.14
77869;BME280;67231;59.144;37.934;2024-03-17T13:26:16;99880.09;;;7.29;57.49
77869;BME280;67231;59.144;37.934;2024-03-17T13:28:42;99878.84;;;7.24;57.48
77869;BME280;67231;59.144;37.934;2024-03-17T13:31:11;99876.03;;;7.16;57.78
77869;BME280;67231;59.144;37.934;2024-03-17T13:33:41;99878.38;;;7.09;57.95
77869;BME280;67231;59.144;37.934;2024-03-17T13:36:08;99869.19;;;7.03;58.22
77869;BME280;67231;59.144;37.934;2024-03-17T13:38:34;99874.00;;;6.98;58.23
77869;BME280;67231;59.144;37.934;2024-03-17T13:41:01;99878.03;;;6.92;58.33
77869;BME280;67231;59.144;37.934;2024-03-17T13:43:31;99872.84;;;6.81;58.32
77869;BME280;67231;59.144;37.934;2024-03-17T13:46:01;99880.31;;;6.76;58.80
77869;BME280;67231;59.144;37.934;2024-03-17T13:48:30;99869.34;;;6.71;58.53